createdAt,value
2022-09-23T00:03:22.526Z,8.08
2022-09-23T00:08:26.042Z,8.20
2022-09-23T00:13:29.351Z,8.23
2022-09-23T00:18:33.586Z,8.22
2022-09-23T00:23:38.845Z,8.25
2022-09-23T00:28:44.057Z,8.28
2022-09-23T00:33:47.412Z,8.22
2022-09-23T00:38:50.824Z,8.15
2022-09-23T00:44:00.178Z,8.14
2022-09-23T00:49:19.495Z,8.16
2022-09-23T00:54:27.581Z,8.19
2022-09-23T00:59:31.103Z,8.24
2022-09-23T01:04:35.954Z,8.32
2022-09-23T01:09:39.469Z,8.36
2022-09-23T01:15:05.749Z,8.40
2022-09-23T01:20:30.742Z,8.38
2022-09-23T01:26:04.145Z,8.36
2022-09-23T01:31:20.322Z,8.34
2022-09-23T01:36:39.614Z,8.36
2022-09-23T01:42:01.092Z,8.22
2022-09-23T01:47:19.661Z,8.11
2022-09-23T01:52:30.756Z,8.05
2022-09-23T01:57:43.791Z,8.01
2022-09-23T02:03:13.772Z,7.96
2022-09-23T02:08:34.970Z,7.92
2022-09-23T02:14:02.950Z,7.86
2022-09-23T02:19:15.681Z,7.82
2022-09-23T02:24:32.255Z,7.82
2022-09-23T02:29:53.025Z,7.84
2022-09-23T02:35:29.362Z,7.90
2022-09-23T02:40:59.140Z,7.79
2022-09-23T02:46:07.655Z,7.65
2022-09-23T02:51:11.452Z,7.53
2022-09-23T02:56:21.366Z,7.48
2022-09-23T03:01:59.656Z,7.40
2022-09-23T03:07:17.145Z,7.35
2022-09-23T03:12:59.776Z,7.32
2022-09-23T03:18:35.143Z,7.25
2022-09-23T03:23:41.410Z,7.21
2022-09-23T03:28:46.632Z,7.19
2022-09-23T03:33:59.298Z,7.20
2022-09-23T03:39:40.606Z,7.26
2022-09-23T03:44:47.297Z,7.37
2022-09-23T03:49:52.450Z,7.34
2022-09-23T03:54:55.765Z,7.36
2022-09-23T03:59:59.176Z,7.39
2022-09-23T04:05:02.590Z,7.32
2022-09-23T04:10:07.360Z,7.17
2022-09-23T04:15:11.565Z,7.01
2022-09-23T04:20:15.553Z,6.90
2022-09-23T04:25:18.804Z,6.95
2022-09-23T04:30:22.114Z,7.04
2022-09-23T04:35:25.426Z,7.10
2022-09-23T04:40:28.973Z,7.30
2022-09-23T04:45:32.300Z,7.35
2022-09-23T04:50:38.027Z,7.28
2022-09-23T04:55:42.357Z,7.29
2022-09-23T05:00:46.513Z,7.32
2022-09-23T05:05:50.525Z,7.33
2022-09-23T05:10:59.094Z,7.41
2022-09-23T05:16:10.255Z,7.49
2022-09-23T05:21:16.941Z,7.54
2022-09-23T05:26:20.902Z,7.67
2022-09-23T05:31:28.549Z,7.64
2022-09-23T05:36:38.798Z,7.57
2022-09-23T05:41:43.289Z,7.64
2022-09-23T05:46:46.755Z,7.81
2022-09-23T05:51:50.323Z,7.89
2022-09-23T05:56:53.570Z,7.94
2022-09-23T06:01:57.019Z,8.05
2022-09-23T06:07:03.284Z,8.18
2022-09-23T06:12:07.269Z,8.31
2022-09-23T06:17:10.567Z,8.44
2022-09-23T06:22:17.114Z,8.54
2022-09-23T06:27:20.641Z,8.58
2022-09-23T06:32:23.985Z,8.63
2022-09-23T06:37:27.632Z,8.71
2022-09-23T06:42:31.014Z,8.75
2022-09-23T06:47:34.428Z,8.82
2022-09-23T06:52:37.739Z,8.92
2022-09-23T06:57:41.776Z,9.00
2022-09-23T07:02:45.729Z,9.15
2022-09-23T07:07:49.789Z,9.23
2022-09-23T07:12:53.243Z,9.25
2022-09-23T07:17:57.713Z,9.36
2022-09-23T07:23:01.116Z,9.44
2022-09-23T07:28:05.681Z,9.53
2022-09-23T07:33:26.621Z,9.71
2022-09-23T07:38:32.736Z,9.95
2022-09-23T07:43:38.101Z,10.13
2022-09-23T07:48:42.537Z,10.33
2022-09-23T07:53:51.785Z,10.40
2022-09-23T07:59:03.902Z,10.51
2022-09-23T08:04:17.967Z,10.73
2022-09-23T08:09:33.112Z,10.95
2022-09-23T08:14:36.466Z,11.17
2022-09-23T08:19:40.291Z,11.48
2022-09-23T08:24:43.702Z,11.70
2022-09-23T08:29:48.141Z,11.74
2022-09-23T08:34:51.556Z,11.74
2022-09-23T08:39:55.168Z,11.84
2022-09-23T08:45:04.570Z,11.97
2022-09-23T08:50:18.825Z,12.04
2022-09-23T08:55:51.187Z,12.17
2022-09-23T09:01:23.406Z,12.35
2022-09-23T09:13:00.629Z,12.70
2022-09-23T09:18:20.214Z,12.91
2022-09-23T09:23:46.260Z,13.07
2022-09-23T09:29:06.550Z,13.17
2022-09-23T09:34:44.016Z,13.16
2022-09-23T09:39:47.394Z,13.12
2022-09-23T09:44:59.361Z,13.10
2022-09-23T09:50:19.418Z,13.22
2022-09-23T09:55:29.068Z,13.33
2022-09-23T10:00:43.591Z,13.39
2022-09-23T10:05:47.007Z,13.52
2022-09-23T10:11:20.629Z,13.81
2022-09-23T10:16:24.021Z,14.07
2022-09-23T10:21:36.059Z,14.34
2022-09-23T10:27:02.916Z,14.77
2022-09-23T10:32:43.516Z,15.16
2022-09-23T10:37:52.556Z,15.11
2022-09-23T10:43:41.338Z,14.78
2022-09-23T10:49:32.473Z,14.55
2022-09-23T10:55:00.455Z,14.48
2022-09-23T11:00:47.906Z,14.50
2022-09-23T11:06:02.965Z,14.62
2022-09-23T11:11:46.355Z,14.77
2022-09-23T11:17:19.462Z,14.89
2022-09-23T11:22:51.037Z,14.88
2022-09-23T11:28:44.832Z,14.83
2022-09-23T11:34:12.622Z,14.61
2022-09-23T11:39:28.439Z,14.28
2022-09-23T11:44:42.193Z,13.96
2022-09-23T11:50:03.385Z,13.77
2022-09-23T11:55:25.244Z,13.63
2022-09-23T12:00:36.150Z,13.51
2022-09-23T12:05:49.833Z,13.39
2022-09-23T12:11:11.756Z,13.34
2022-09-23T12:16:46.242Z,13.30
2022-09-23T12:22:42.555Z,13.24
2022-09-23T12:27:55.629Z,13.24
2022-09-23T12:33:37.110Z,13.30
2022-09-23T12:38:53.629Z,13.47
2022-09-23T12:44:15.277Z,13.59
2022-09-23T12:49:28.493Z,13.67
2022-09-23T12:54:32.541Z,13.74
2022-09-23T13:00:19.306Z,13.90
2022-09-23T13:05:46.125Z,14.11
2022-09-23T13:10:54.668Z,14.28
2022-09-23T13:16:12.989Z,14.28
2022-09-23T13:21:39.664Z,14.31
2022-09-23T13:27:00.717Z,14.34
2022-09-23T13:32:06.582Z,14.45
2022-09-23T13:37:45.850Z,14.54
2022-09-23T13:42:58.648Z,14.69
2022-09-23T13:48:07.627Z,14.89
2022-09-23T13:53:17.697Z,15.04
2022-09-23T13:58:26.554Z,15.13
2022-09-23T14:03:37.826Z,15.14
2022-09-23T14:08:46.069Z,15.00
2022-09-23T14:13:55.253Z,14.90
2022-09-23T14:19:00.723Z,14.86
2022-09-23T14:24:25.392Z,14.83
2022-09-23T14:29:35.669Z,14.77
2022-09-23T14:35:06.940Z,14.74
2022-09-23T14:40:22.853Z,14.66
2022-09-23T14:45:34.910Z,14.54
2022-09-23T14:50:43.910Z,14.47
2022-09-23T14:55:53.159Z,14.36
2022-09-23T15:01:00.618Z,14.24
2022-09-23T15:06:09.511Z,14.16
2022-09-23T15:11:13.124Z,14.15
2022-09-23T15:16:26.195Z,14.11
2022-09-23T15:21:44.387Z,14.05
2022-09-23T15:26:52.740Z,14.03
2022-09-23T15:31:56.109Z,13.99
2022-09-23T15:36:59.483Z,13.92
2022-09-23T15:42:02.796Z,13.85
2022-09-23T15:47:06.825Z,13.81
2022-09-23T15:52:12.426Z,13.73
2022-09-23T15:57:15.710Z,13.67
2022-09-23T16:02:23.890Z,13.60
2022-09-23T16:07:28.580Z,13.54
2022-09-23T16:12:32.368Z,13.52
2022-09-23T16:17:37.961Z,13.53
2022-09-23T16:22:41.579Z,13.57
2022-09-23T16:27:45.398Z,13.54
2022-09-23T16:32:48.812Z,13.42
2022-09-23T16:37:53.103Z,13.29
2022-09-23T16:42:58.615Z,13.22
2022-09-23T16:48:02.847Z,13.16
2022-09-23T16:53:06.465Z,13.06
2022-09-23T16:58:09.774Z,12.98
2022-09-23T17:03:32.342Z,13.00
2022-09-23T17:08:35.787Z,13.05
2022-09-23T17:13:41.521Z,13.16
2022-09-23T17:18:45.140Z,13.16
2022-09-23T17:23:48.484Z,13.11
2022-09-23T17:28:57.256Z,13.03
2022-09-23T17:34:01.220Z,12.93
2022-09-23T17:39:06.425Z,12.87
2022-09-23T17:44:11.688Z,12.84
2022-09-23T17:49:15.764Z,12.76
2022-09-23T17:54:19.074Z,12.69
2022-09-23T17:59:22.495Z,12.70
2022-09-23T18:04:25.761Z,12.69
2022-09-23T18:09:29.215Z,12.61
2022-09-23T18:14:32.522Z,12.55
2022-09-23T18:19:35.946Z,12.58
2022-09-23T18:24:41.398Z,12.54
2022-09-23T18:29:44.912Z,12.49
2022-09-23T18:34:48.328Z,12.43
2022-09-23T18:39:51.749Z,12.35
2022-09-23T18:44:56.792Z,12.37
2022-09-23T18:50:18.743Z,12.39
2022-09-23T18:55:22.051Z,12.46
2022-09-23T19:00:25.553Z,12.54
2022-09-23T19:05:29.496Z,12.60
2022-09-23T19:10:32.820Z,12.56
2022-09-23T19:15:36.118Z,12.44
2022-09-23T19:20:49.608Z,12.31
2022-09-23T19:25:52.980Z,12.24
2022-09-23T19:30:56.665Z,12.22
2022-09-23T19:36:00.014Z,12.28
2022-09-23T19:41:08.248Z,12.36
2022-09-23T19:46:11.710Z,12.40
2022-09-23T19:51:16.808Z,12.35
2022-09-23T19:56:20.465Z,12.34
2022-09-23T20:01:26.530Z,12.23
2022-09-23T20:06:33.172Z,12.14
2022-09-23T20:11:36.604Z,12.10
2022-09-23T20:16:40.713Z,12.13
2022-09-23T20:21:44.159Z,12.14
2022-09-23T20:27:05.996Z,12.12
2022-09-23T20:32:11.574Z,11.93
2022-09-23T20:37:20.707Z,11.81
2022-09-23T20:42:24.634Z,11.79
2022-09-23T20:47:27.948Z,11.75
2022-09-23T20:52:31.358Z,11.72
2022-09-23T20:57:34.718Z,11.78
2022-09-23T21:02:38.093Z,11.85
2022-09-23T21:07:41.499Z,11.78
2022-09-23T21:12:50.650Z,11.72
2022-09-23T21:17:54.587Z,11.67
2022-09-23T21:22:58.090Z,11.63
2022-09-23T21:28:05.188Z,11.62
2022-09-23T21:33:08.473Z,11.62
2022-09-23T21:38:12.055Z,11.60
2022-09-23T21:43:16.864Z,11.62
2022-09-23T21:48:21.316Z,11.70
2022-09-23T21:53:24.935Z,11.83
2022-09-23T21:58:30.650Z,11.91
2022-09-23T22:03:34.060Z,11.92
2022-09-23T22:08:41.874Z,11.85
2022-09-23T22:13:45.131Z,11.71
2022-09-23T22:18:55.484Z,11.54
2022-09-23T22:24:02.067Z,11.41
2022-09-23T22:29:27.632Z,11.31
2022-09-23T22:34:49.116Z,11.25
2022-09-23T22:39:54.223Z,11.28
2022-09-23T22:44:57.823Z,11.32
2022-09-23T22:50:02.478Z,11.32
2022-09-23T22:55:08.300Z,11.32
2022-09-23T23:00:13.242Z,11.31
2022-09-23T23:05:16.714Z,11.25
2022-09-23T23:10:20.234Z,11.13
2022-09-23T23:15:23.543Z,11.03
2022-09-23T23:20:27.876Z,10.99
2022-09-23T23:25:31.289Z,10.97
2022-09-23T23:30:35.247Z,10.97
2022-09-23T23:35:38.630Z,10.93
2022-09-23T23:40:42.233Z,10.88
2022-09-23T23:45:46.769Z,10.80
2022-09-23T23:50:58.503Z,10.67
2022-09-23T23:56:08.976Z,10.54
